弊社立ち上げの時代!!

LUXURY FLIGHT

03-6423-7371

羽田本店:東京都大田区羽田5-11-1
営業時間:10:00~20:00
定休日:毎週 月曜日
セントレア店:愛知県常滑市セントレア1-1
営業時間:10:00~20:00 年中無休

lv

弊社立ち上げの時代!!

STAFF BLOG

2019/05/12 弊社立ち上げの時代!!

こんにちは〜〜

 

本日は、ブログアップが遅れてしまいましたが、

 

17:30のRJGG のMETARっす

 

RJGG 120830Z 14015KT 9999 FEW020 BKN/// 22/15 Q1013 NOSIG

 

表に出ていないので、実際の天候は❓ですが、

 

22°はいいっすね〜〜

 

今日もお出かけ日和だったセントレア近郊ですね!!

 

 

はてさて、昨日あまりにも懐かしいお客様がご来店いただきました

 

千葉からご来店いただいたTさま!!

 

実は、弊社立ち上げは埼玉からプレハブに737シミュレーターをぶっこんで

 

スタートしましたが、その時代のお客様

 

正に、歴史の始まりを共にしていただいたお客様です

 

はじめ、入って来られた瞬間は、正直ピンとは来なかったんですが、

 

「あれ・・・・絶対にお会いしたことあるぞ・・・でも、雰囲気がチョツト違うかな・・・」

 

みたいに、瞬間的に相当悩みました。。。。

 

また、Tさんも「ん??本当に社長か?? 随分肥えてるな・・・・」

 

と、感じたそうです笑

 

が、先にご挨拶いただいたことで、「やっぱそうですかーーーーーーーーーーーーーー」

 

「いやーーーーーーーーーーーーーーーーーーーーーーーーーーーーーーーーーーー」

 

「お久しぶりすぎですーーーーーーーーーーーーーーーーーーーーーーーーーーーー」

 

との流れになり、懐かしい昔話でお店がお花畑となりました

 

シミュレーターの操縦も相当久々だとのTさんでしたが、

 

体験の内容はタッチアンドゴーを行いましたが、

 

なんら問題なくこなしておりました

 

img_2893

 

1週目より2週目・・・・

 

img_2894

2週目よりも3週目と・・・・

 

ナイスなプログレスをご披露いただきました

 

本当に、懐かしいだけでなく、楽しい時間を過ごさせていただきました!!

 

Tさん!!

 

Tさんの笑顔から、改めて元気をいただきました。

 

勇気をいただきました。

 

頑張らにゃならんですね!!

 

お忙しいところ、わざわざセントレアまでありがとうございました。

 

昨夜は楽しんだかな・・・笑

 

 

それでは、またお会いしましょーーーーー

 

 

「感謝」

 

 

 

 

 

TOP